createdAt,value
2023-01-13T00:01:44.588Z,96488.88
2023-01-13T00:07:05.243Z,96488.78
2023-01-13T00:12:25.947Z,96485.25
2023-01-13T00:17:48.042Z,96493.44
2023-01-13T00:23:08.806Z,96473.78
2023-01-13T00:28:29.905Z,96478.13
2023-01-13T00:33:52.085Z,96467.25
2023-01-13T00:39:13.226Z,96462.91
2023-01-13T00:44:34.107Z,96458.94
2023-01-13T00:49:55.492Z,96457.53
2023-01-13T00:55:16.908Z,96456.56
2023-01-13T01:00:37.798Z,96448.22
2023-01-13T01:06:04.815Z,96448.34
2023-01-13T01:11:29.626Z,96448.63
2023-01-13T01:16:50.508Z,96446.03
2023-01-13T01:22:11.304Z,96442.59
2023-01-13T01:27:32.105Z,96439.06
2023-01-13T01:32:52.849Z,96427.88
2023-01-13T01:38:13.842Z,96417.63
2023-01-13T01:44:00.436Z,96422.56
2023-01-13T01:49:24.026Z,96421.59
2023-01-13T01:55:11.907Z,96411.22
2023-01-13T02:00:33.014Z,96394.16
2023-01-13T02:05:54.290Z,96392.53
2023-01-13T02:11:47.959Z,96390.50
2023-01-13T02:17:21.099Z,96384.34
2023-01-13T02:23:39.439Z,96385.75
2023-01-13T02:29:33.475Z,96381.50
2023-01-13T02:35:13.359Z,96383.03
2023-01-13T02:40:46.003Z,96378.66
2023-01-13T02:46:15.812Z,96376.50
2023-01-13T02:51:38.802Z,96376.09
2023-01-13T02:57:01.306Z,96369.97
2023-01-13T03:02:23.717Z,96360.69
2023-01-13T03:07:49.402Z,96353.72
2023-01-13T03:13:31.776Z,96360.44
2023-01-13T03:18:59.933Z,96351.72
2023-01-13T03:24:44.247Z,96357.94
2023-01-13T03:30:17.138Z,96353.72
2023-01-13T03:35:43.539Z,96354.81
2023-01-13T03:41:11.900Z,96358.91
2023-01-13T03:46:41.545Z,96358.75
2023-01-13T03:52:07.630Z,96353.00
2023-01-13T03:57:34.582Z,96354.34
2023-01-13T04:03:02.605Z,96341.28
2023-01-13T04:08:27.525Z,96346.72
2023-01-13T04:13:50.076Z,96342.94
2023-01-13T04:19:10.820Z,96339.75
2023-01-13T04:24:31.502Z,96346.97
2023-01-13T04:29:52.193Z,96345.63
2023-01-13T04:35:12.837Z,96347.97
2023-01-13T04:40:33.682Z,96343.97
2023-01-13T04:45:54.350Z,96336.91
2023-01-13T04:51:14.925Z,96340.28
2023-01-13T04:56:35.598Z,96345.56
2023-01-13T05:01:56.533Z,96350.47
2023-01-13T05:07:17.451Z,96348.25
2023-01-13T05:12:56.949Z,96339.91
2023-01-13T05:18:19.274Z,96339.53
2023-01-13T05:23:58.435Z,96348.81
2023-01-13T05:29:19.329Z,96341.16
2023-01-13T05:34:40.006Z,96342.81
2023-01-13T05:40:19.112Z,96324.22
2023-01-13T05:45:39.936Z,96330.09
2023-01-13T05:51:02.266Z,96316.72
2023-01-13T05:56:23.062Z,96312.50
2023-01-13T06:01:43.623Z,96317.09
2023-01-13T06:07:04.375Z,96320.34
2023-01-13T06:12:25.128Z,96319.66
2023-01-13T06:17:45.938Z,96322.53
2023-01-13T06:23:09.577Z,96330.31
2023-01-13T06:28:30.324Z,96324.16
2023-01-13T06:33:55.697Z,96322.63
2023-01-13T06:39:19.811Z,96327.00
2023-01-13T06:44:40.589Z,96324.81
2023-01-13T06:50:01.366Z,96333.41
2023-01-13T06:55:21.977Z,96323.72
2023-01-13T07:00:43.197Z,96321.25
2023-01-13T07:06:04.061Z,96317.69
2023-01-13T07:11:25.135Z,96322.78
2023-01-13T07:16:46.226Z,96322.53
2023-01-13T07:22:07.447Z,96323.38
2023-01-13T07:27:28.494Z,96328.25
2023-01-13T07:32:49.307Z,96323.19
2023-01-13T07:38:10.172Z,96324.16
2023-01-13T07:43:33.807Z,96327.44
2023-01-13T07:48:55.012Z,96324.84
2023-01-13T07:54:15.625Z,96328.97
2023-01-13T07:59:36.882Z,96328.13
2023-01-13T08:04:58.009Z,96329.25
2023-01-13T08:10:18.721Z,96329.38
2023-01-13T08:15:39.496Z,96330.06
2023-01-13T08:21:08.862Z,96336.19
2023-01-13T08:26:29.498Z,96330.91
2023-01-13T08:31:50.133Z,96323.13
2023-01-13T08:37:10.715Z,96331.03
2023-01-13T08:42:31.601Z,96335.94
2023-01-13T08:47:52.350Z,96331.22
2023-01-13T08:53:13.199Z,96325.38
2023-01-13T08:58:33.867Z,96326.22
2023-01-13T09:03:55.997Z,96323.50
2023-01-13T09:09:17.353Z,96327.34
2023-01-13T09:14:39.017Z,96327.09
2023-01-13T09:19:59.772Z,96340.50
2023-01-13T09:25:20.371Z,96330.13
2023-01-13T09:30:41.276Z,96334.09
2023-01-13T09:36:01.903Z,96329.31
2023-01-13T09:41:43.792Z,96332.59
2023-01-13T09:47:15.371Z,96326.31
2023-01-13T09:52:37.114Z,96324.69
2023-01-13T09:57:57.953Z,96328.41
2023-01-13T10:03:30.407Z,96326.09
2023-01-13T10:08:51.433Z,96321.72
2023-01-13T10:14:23.602Z,96309.00
2023-01-13T10:20:07.035Z,96312.28
2023-01-13T10:25:33.541Z,96288.06
2023-01-13T10:30:54.652Z,96289.88
2023-01-13T10:36:21.373Z,96284.94
2023-01-13T10:41:44.142Z,96293.44
2023-01-13T10:47:28.970Z,96277.69
2023-01-13T10:53:16.412Z,96284.38
2023-01-13T10:58:37.151Z,96270.03
2023-01-13T11:03:57.835Z,96268.38
2023-01-13T11:09:25.199Z,96261.06
2023-01-13T11:14:48.159Z,96253.19
2023-01-13T11:20:11.801Z,96248.19
2023-01-13T11:25:43.270Z,96259.41
2023-01-13T11:31:31.027Z,96260.22
2023-01-13T11:36:54.332Z,96255.16
2023-01-13T11:42:56.571Z,96250.91
2023-01-13T11:48:22.139Z,96251.19
2023-01-13T11:54:07.877Z,96243.84
2023-01-13T11:59:43.736Z,96250.28
2023-01-13T12:05:23.972Z,96243.59
2023-01-13T12:10:44.930Z,96251.16
2023-01-13T12:16:30.689Z,96245.41
2023-01-13T12:22:13.324Z,96246.66
2023-01-13T12:27:49.503Z,96239.16
2023-01-13T12:33:52.116Z,96240.50
2023-01-13T12:39:28.380Z,96234.16
2023-01-13T12:45:31.926Z,96253.81
2023-01-13T12:51:00.766Z,96257.88
2023-01-13T12:56:44.916Z,96247.91
2023-01-13T13:02:28.244Z,96244.97
2023-01-13T13:08:12.754Z,96264.41
2023-01-13T13:13:41.348Z,96273.03
2023-01-13T13:19:20.292Z,96283.06
2023-01-13T13:24:43.203Z,96296.63
2023-01-13T13:30:18.094Z,96306.38
2023-01-13T13:35:52.355Z,96345.53
2023-01-13T13:41:43.384Z,96370.16
2023-01-13T13:47:06.461Z,96311.31
2023-01-13T13:52:32.886Z,96300.66
2023-01-13T13:57:56.087Z,96302.19
2023-01-13T14:03:28.149Z,96301.50
2023-01-13T14:08:50.454Z,96291.63
2023-01-13T14:14:16.881Z,96315.16
2023-01-13T14:19:42.550Z,96324.56
2023-01-13T14:25:23.576Z,96344.25
2023-01-13T14:30:44.714Z,96362.00
2023-01-13T14:36:15.213Z,96387.97
2023-01-13T14:41:41.883Z,96402.97
2023-01-13T14:47:17.306Z,96405.69
2023-01-13T14:52:54.721Z,96407.28
2023-01-13T14:58:21.663Z,96391.53
2023-01-13T15:03:42.696Z,96395.00
2023-01-13T15:09:12.633Z,96393.66
2023-01-13T15:14:34.477Z,96396.22
2023-01-13T15:19:55.284Z,96395.50
2023-01-13T15:25:16.237Z,96409.88
2023-01-13T15:30:37.320Z,96396.50
2023-01-13T15:35:58.567Z,96432.44
2023-01-13T15:41:39.565Z,96449.91
2023-01-13T15:47:05.027Z,96456.44
2023-01-13T15:52:27.487Z,96452.69
2023-01-13T15:57:51.096Z,96454.53
2023-01-13T16:03:13.673Z,96455.13
2023-01-13T16:08:35.087Z,96467.41
2023-01-13T16:13:55.575Z,96466.50
2023-01-13T16:19:16.361Z,96481.88
2023-01-13T16:24:39.647Z,96498.94
2023-01-13T16:30:00.391Z,96499.44
2023-01-13T16:35:22.404Z,96508.97
2023-01-13T16:40:46.861Z,96519.59
2023-01-13T16:46:21.390Z,96525.38
2023-01-13T16:51:43.360Z,96537.00
2023-01-13T16:57:04.662Z,96531.69
2023-01-13T17:02:25.688Z,96528.41
2023-01-13T17:07:48.081Z,96553.63
2023-01-13T17:13:16.002Z,96559.41
2023-01-13T17:18:37.620Z,96560.88
2023-01-13T17:23:58.343Z,96579.38
2023-01-13T17:29:22.322Z,96585.78
2023-01-13T17:34:43.839Z,96582.13
2023-01-13T17:40:04.976Z,96589.66
2023-01-13T17:45:25.889Z,96604.13
2023-01-13T17:50:47.900Z,96608.50
2023-01-13T17:56:10.448Z,96603.44
2023-01-13T18:01:33.233Z,96602.94
2023-01-13T18:06:56.747Z,96601.56
2023-01-13T18:12:17.390Z,96614.72
2023-01-13T18:17:38.054Z,96615.19
2023-01-13T18:23:17.341Z,96634.50
2023-01-13T18:28:37.851Z,96630.59
2023-01-13T18:33:58.750Z,96639.53
2023-01-13T18:39:19.735Z,96639.09
2023-01-13T18:44:40.746Z,96648.50
2023-01-13T18:50:01.593Z,96656.63
2023-01-13T18:55:22.936Z,96636.38
2023-01-13T19:00:44.205Z,96649.16
2023-01-13T19:06:07.603Z,96659.47
2023-01-13T19:11:30.582Z,96665.00
2023-01-13T19:16:52.679Z,96668.66
2023-01-13T19:22:15.266Z,96675.19
2023-01-13T19:27:36.043Z,96670.63
2023-01-13T19:32:56.715Z,96677.91
2023-01-13T19:38:17.407Z,96690.56
2023-01-13T19:43:56.774Z,96703.50
2023-01-13T19:49:17.633Z,96719.16
2023-01-13T19:54:38.808Z,96719.47
2023-01-13T19:59:59.256Z,96722.28
2023-01-13T20:05:22.736Z,96718.25
2023-01-13T20:10:45.562Z,96714.13
2023-01-13T20:16:06.930Z,96727.16
2023-01-13T20:21:27.959Z,96734.81
2023-01-13T20:26:48.665Z,96745.97
2023-01-13T20:32:09.377Z,96752.81
2023-01-13T20:37:30.155Z,96753.91
2023-01-13T20:42:51.871Z,96773.56
2023-01-13T20:48:13.004Z,96770.38
2023-01-13T20:53:34.044Z,96769.34
2023-01-13T20:58:55.094Z,96772.97
2023-01-13T21:04:16.035Z,96762.22
2023-01-13T21:09:37.048Z,96766.88
2023-01-13T21:15:16.458Z,96766.28
2023-01-13T21:20:38.912Z,96774.25
2023-01-13T21:26:00.648Z,96768.69
2023-01-13T21:31:21.538Z,96773.25
2023-01-13T21:36:42.629Z,96785.97
2023-01-13T21:42:22.097Z,96788.44
2023-01-13T21:47:48.895Z,96790.00
2023-01-13T21:53:11.166Z,96802.69
2023-01-13T21:58:32.370Z,96810.47
2023-01-13T22:04:11.585Z,96822.47
2023-01-13T22:09:32.531Z,96820.13
2023-01-13T22:14:54.493Z,96828.28
2023-01-13T22:20:15.589Z,96828.28
2023-01-13T22:25:36.391Z,96828.28
2023-01-13T22:30:56.990Z,96823.91
2023-01-13T22:36:18.049Z,96834.13
2023-01-13T22:41:38.873Z,96836.84
2023-01-13T22:47:00.398Z,96840.88
2023-01-13T22:52:22.432Z,96846.34
2023-01-13T22:57:48.086Z,96849.75
2023-01-13T23:03:09.365Z,96847.59
2023-01-13T23:08:30.046Z,96845.13
2023-01-13T23:13:57.266Z,96848.72
2023-01-13T23:19:18.115Z,96860.53
2023-01-13T23:24:38.770Z,96867.22
2023-01-13T23:29:59.660Z,96860.72
2023-01-13T23:35:20.278Z,96858.38
2023-01-13T23:40:41.983Z,96871.31
2023-01-13T23:46:04.887Z,96867.88
2023-01-13T23:51:27.551Z,96876.69
2023-01-13T23:56:55.011Z,96872.44
